KHQM/HQM METAR and TAF weather

Enter ICAO airport designator
Station Type Date Time Source
KHQM METAR 2019/02/21 15:53 UTC NOAA

KHQM 211553Z AUTO 05004KT 5SM BR CLR 00/M01 A3011 RMK AO2 SLP200 T00001006


Station Type Date Time Source
KHQM Decoded METAR 2019/02/21 15:53 UTC NOAA

HOQUIAM BOWERMAN AIRPORT, WA, United States (KHQM) 46-58N 123-56W 7M
Feb 21, 2019 - 10:53 AM EST / 2019.02.21 1553 UTC
Wind: from the NE (050 degrees) at 5 MPH (4 KT):0
Visibility: 5 mile(s):0
Sky conditions: clear
Weather: mist
Temperature: 32.0 F (0.0 C)
Windchill: 26 F (-3 C):1
Dew Point: 30.9 F (-0.6 C)
Relative Humidity: 95%
Pressure (altimeter): 30.11 in. Hg (1019 hPa)
ob: KHQM 211553Z AUTO 05004KT 5SM BR CLR 00/M01 A3011 RMK AO2 SLP200 T00001006
cycle: 16

Station Type Date Time Source
KHQM TAF 2019/02/21 12:30 UTC NOAA

TAF KHQM 211127Z 2112/2212 06005KT P6SM SKC
FM220000 VRB05KT P6SM BKN200
FM220500 15006KT P6SM SCT120 OVC200
FM220800 14006KT P6SM BKN080 OVC120
FM221100 15009KT P6SM VCSH BKN035 OVC060


Example: see airport list